Terminal Aerodrome Forecast
Issued by NWS

Home | Current Version | Previous Version | Text Only | Print | Product List | Glossary On
Versions: 1 2 3 4 5 6 7 8 9 10 11 12 13 14 15 16 17 18
000
FTUS44 KTSA 100500
TAFMLC
TAF
KMLC 100520Z 1006/1106 10004KT P6SM SCT250
     FM101000 09002KT P6SM VCTS SCT050CB BKN100
      TEMPO 1014/1018 5SM -TSRA BKN050CB
     FM102100 17006KT P6SM SCT050 BKN250
     FM110000 14006KT P6SM BKN250=

USA.gov is the U.S. government's official web portal to all federal, state and local government web resources and services.